sensor_id;sensor_type;location;lat;lon;timestamp;P1;durP1;ratioP1;P2;durP2;ratioP2
17644;SDS011;8941;51.986;4.340;2022-07-09T00:00:05;17.07;;;15.53;;
17644;SDS011;8941;51.986;4.340;2022-07-09T00:02:32;16.53;;;15.03;;
17644;SDS011;8941;51.986;4.340;2022-07-09T00:05:00;16.83;;;15.30;;
17644;SDS011;8941;51.986;4.340;2022-07-09T00:07:27;16.00;;;14.63;;
17644;SDS011;8941;51.986;4.340;2022-07-09T00:09:53;14.70;;;13.23;;
17644;SDS011;8941;51.986;4.340;2022-07-09T00:12:19;14.30;;;12.97;;
17644;SDS011;8941;51.986;4.340;2022-07-09T00:14:46;17.73;;;15.73;;
17644;SDS011;8941;51.986;4.340;2022-07-09T00:17:12;16.70;;;14.67;;
17644;SDS011;8941;51.986;4.340;2022-07-09T00:19:39;18.13;;;16.50;;
17644;SDS011;8941;51.986;4.340;2022-07-09T00:22:07;22.63;;;16.50;;
17644;SDS011;8941;51.986;4.340;2022-07-09T00:24:36;19.87;;;18.00;;
17644;SDS011;8941;51.986;4.340;2022-07-09T00:27:02;17.50;;;15.70;;
17644;SDS011;8941;51.986;4.340;2022-07-09T00:29:29;18.07;;;16.20;;
17644;SDS011;8941;51.986;4.340;2022-07-09T00:31:55;18.27;;;16.60;;
17644;SDS011;8941;51.986;4.340;2022-07-09T00:34:22;17.30;;;15.63;;
17644;SDS011;8941;51.986;4.340;2022-07-09T00:36:48;19.67;;;18.03;;
17644;SDS011;8941;51.986;4.340;2022-07-09T00:39:16;17.57;;;15.60;;
17644;SDS011;8941;51.986;4.340;2022-07-09T00:41:42;17.27;;;15.83;;
17644;SDS011;8941;51.986;4.340;2022-07-09T00:44:08;19.37;;;17.33;;
17644;SDS011;8941;51.986;4.340;2022-07-09T00:46:35;17.93;;;16.23;;
17644;SDS011;8941;51.986;4.340;2022-07-09T00:49:01;17.17;;;15.40;;
17644;SDS011;8941;51.986;4.340;2022-07-09T00:51:31;17.90;;;16.30;;
17644;SDS011;8941;51.986;4.340;2022-07-09T00:53:58;15.90;;;14.60;;
17644;SDS011;8941;51.986;4.340;2022-07-09T00:56:26;17.43;;;15.80;;
17644;SDS011;8941;51.986;4.340;2022-07-09T00:58:53;17.20;;;15.63;;
17644;SDS011;8941;51.986;4.340;2022-07-09T01:01:20;16.13;;;14.60;;
17644;SDS011;8941;51.986;4.340;2022-07-09T01:03:46;17.07;;;15.47;;
17644;SDS011;8941;51.986;4.340;2022-07-09T01:06:12;15.33;;;12.77;;
17644;SDS011;8941;51.986;4.340;2022-07-09T01:08:40;17.03;;;15.53;;
17644;SDS011;8941;51.986;4.340;2022-07-09T01:11:06;13.17;;;12.03;;
17644;SDS011;8941;51.986;4.340;2022-07-09T01:13:34;15.87;;;14.37;;
17644;SDS011;8941;51.986;4.340;2022-07-09T01:16:01;14.17;;;12.87;;
17644;SDS011;8941;51.986;4.340;2022-07-09T01:18:27;13.80;;;12.63;;
17644;SDS011;8941;51.986;4.340;2022-07-09T01:20:55;15.40;;;13.60;;
17644;SDS011;8941;51.986;4.340;2022-07-09T01:23:21;18.67;;;14.17;;
17644;SDS011;8941;51.986;4.340;2022-07-09T01:25:48;14.53;;;12.87;;
17644;SDS011;8941;51.986;4.340;2022-07-09T01:28:14;13.63;;;12.33;;
17644;SDS011;8941;51.986;4.340;2022-07-09T01:30:41;14.07;;;12.93;;
17644;SDS011;8941;51.986;4.340;2022-07-09T01:33:08;14.83;;;13.57;;
17644;SDS011;8941;51.986;4.340;2022-07-09T01:35:34;13.90;;;12.60;;
17644;SDS011;8941;51.986;4.340;2022-07-09T01:38:02;13.87;;;12.60;;
17644;SDS011;8941;51.986;4.340;2022-07-09T01:40:28;15.57;;;11.73;;
17644;SDS011;8941;51.986;4.340;2022-07-09T01:42:55;12.90;;;11.90;;
17644;SDS011;8941;51.986;4.340;2022-07-09T01:45:21;12.23;;;11.10;;
17644;SDS011;8941;51.986;4.340;2022-07-09T01:47:47;11.57;;;10.40;;
17644;SDS011;8941;51.986;4.340;2022-07-09T01:50:14;13.70;;;12.10;;
17644;SDS011;8941;51.986;4.340;2022-07-09T01:52:41;11.43;;;10.53;;
17644;SDS011;8941;51.986;4.340;2022-07-09T01:55:09;11.73;;;10.63;;
17644;SDS011;8941;51.986;4.340;2022-07-09T01:57:35;12.10;;;11.13;;
17644;SDS011;8941;51.986;4.340;2022-07-09T02:00:02;12.17;;;10.97;;
17644;SDS011;8941;51.986;4.340;2022-07-09T02:02:29;10.40;;;9.50;;
17644;SDS011;8941;51.986;4.340;2022-07-09T02:04:56;10.53;;;9.57;;
17644;SDS011;8941;51.986;4.340;2022-07-09T02:07:22;10.97;;;10.17;;
17644;SDS011;8941;51.986;4.340;2022-07-09T02:09:49;9.63;;;8.83;;
17644;SDS011;8941;51.986;4.340;2022-07-09T02:12:18;11.90;;;10.57;;
17644;SDS011;8941;51.986;4.340;2022-07-09T02:14:44;10.80;;;10.00;;
17644;SDS011;8941;51.986;4.340;2022-07-09T02:17:10;11.07;;;10.20;;
17644;SDS011;8941;51.986;4.340;2022-07-09T02:19:37;10.90;;;9.90;;
17644;SDS011;8941;51.986;4.340;2022-07-09T02:22:04;10.17;;;9.37;;
17644;SDS011;8941;51.986;4.340;2022-07-09T02:24:30;7.87;;;7.27;;
17644;SDS011;8941;51.986;4.340;2022-07-09T02:26:57;9.00;;;8.30;;
17644;SDS011;8941;51.986;4.340;2022-07-09T02:29:25;10.73;;;9.63;;
17644;SDS011;8941;51.986;4.340;2022-07-09T02:31:51;10.00;;;9.20;;
17644;SDS011;8941;51.986;4.340;2022-07-09T02:34:20;9.80;;;8.90;;
17644;SDS011;8941;51.986;4.340;2022-07-09T02:36:46;8.60;;;7.83;;
17644;SDS011;8941;51.986;4.340;2022-07-09T02:39:13;9.07;;;8.37;;
17644;SDS011;8941;51.986;4.340;2022-07-09T02:41:39;7.47;;;7.07;;
17644;SDS011;8941;51.986;4.340;2022-07-09T02:44:05;8.87;;;7.37;;
17644;SDS011;8941;51.986;4.340;2022-07-09T02:46:33;9.40;;;8.60;;
17644;SDS011;8941;51.986;4.340;2022-07-09T02:48:59;9.20;;;8.33;;
17644;SDS011;8941;51.986;4.340;2022-07-09T02:51:26;7.87;;;7.27;;
17644;SDS011;8941;51.986;4.340;2022-07-09T02:53:52;9.60;;;8.67;;
17644;SDS011;8941;51.986;4.340;2022-07-09T02:56:18;10.70;;;8.40;;
17644;SDS011;8941;51.986;4.340;2022-07-09T02:58:45;7.47;;;6.83;;
17644;SDS011;8941;51.986;4.340;2022-07-09T03:01:11;9.43;;;8.17;;
17644;SDS011;8941;51.986;4.340;2022-07-09T03:03:39;7.87;;;7.37;;
17644;SDS011;8941;51.986;4.340;2022-07-09T03:06:05;8.97;;;8.00;;
17644;SDS011;8941;51.986;4.340;2022-07-09T03:08:33;7.53;;;6.83;;
17644;SDS011;8941;51.986;4.340;2022-07-09T03:10:59;8.23;;;7.47;;
17644;SDS011;8941;51.986;4.340;2022-07-09T03:13:25;7.90;;;7.40;;
17644;SDS011;8941;51.986;4.340;2022-07-09T03:15:52;8.23;;;7.53;;
17644;SDS011;8941;51.986;4.340;2022-07-09T03:18:18;8.00;;;7.40;;
17644;SDS011;8941;51.986;4.340;2022-07-09T03:20:47;7.37;;;6.87;;
17644;SDS011;8941;51.986;4.340;2022-07-09T03:23:13;6.80;;;6.40;;
17644;SDS011;8941;51.986;4.340;2022-07-09T03:25:40;9.00;;;7.33;;
17644;SDS011;8941;51.986;4.340;2022-07-09T03:28:06;7.40;;;6.77;;
17644;SDS011;8941;51.986;4.340;2022-07-09T03:30:33;6.87;;;6.23;;
17644;SDS011;8941;51.986;4.340;2022-07-09T03:32:59;7.10;;;6.50;;
17644;SDS011;8941;51.986;4.340;2022-07-09T03:35:25;8.47;;;7.87;;
17644;SDS011;8941;51.986;4.340;2022-07-09T03:37:53;6.53;;;6.13;;
17644;SDS011;8941;51.986;4.340;2022-07-09T03:40:19;7.40;;;6.70;;
17644;SDS011;8941;51.986;4.340;2022-07-09T03:42:46;5.97;;;5.47;;
17644;SDS011;8941;51.986;4.340;2022-07-09T03:45:12;6.67;;;6.07;;
17644;SDS011;8941;51.986;4.340;2022-07-09T03:47:39;7.23;;;6.73;;
17644;SDS011;8941;51.986;4.340;2022-07-09T03:50:06;7.57;;;6.47;;
17644;SDS011;8941;51.986;4.340;2022-07-09T03:52:32;8.17;;;7.40;;
17644;SDS011;8941;51.986;4.340;2022-07-09T03:55:00;6.63;;;6.03;;
17644;SDS011;8941;51.986;4.340;2022-07-09T03:57:26;6.80;;;6.23;;
17644;SDS011;8941;51.986;4.340;2022-07-09T03:59:53;6.23;;;5.73;;
17644;SDS011;8941;51.986;4.340;2022-07-09T04:02:19;8.10;;;7.50;;
17644;SDS011;8941;51.986;4.340;2022-07-09T04:04:45;7.40;;;6.13;;
17644;SDS011;8941;51.986;4.340;2022-07-09T04:07:12;7.73;;;7.00;;
17644;SDS011;8941;51.986;4.340;2022-07-09T04:09:38;7.10;;;6.60;;
17644;SDS011;8941;51.986;4.340;2022-07-09T04:12:07;6.87;;;6.33;;
17644;SDS011;8941;51.986;4.340;2022-07-09T04:14:33;7.90;;;6.10;;
17644;SDS011;8941;51.986;4.340;2022-07-09T04:17:00;7.93;;;6.47;;
17644;SDS011;8941;51.986;4.340;2022-07-09T04:19:26;7.47;;;6.97;;
17644;SDS011;8941;51.986;4.340;2022-07-09T04:21:52;7.57;;;6.87;;
17644;SDS011;8941;51.986;4.340;2022-07-09T04:24:19;8.57;;;7.87;;
17644;SDS011;8941;51.986;4.340;2022-07-09T04:26:45;8.30;;;7.50;;
17644;SDS011;8941;51.986;4.340;2022-07-09T04:29:13;8.80;;;8.00;;
17644;SDS011;8941;51.986;4.340;2022-07-09T04:31:39;8.47;;;7.80;;
17644;SDS011;8941;51.986;4.340;2022-07-09T04:34:06;7.60;;;7.07;;
17644;SDS011;8941;51.986;4.340;2022-07-09T04:36:32;8.20;;;7.47;;
17644;SDS011;8941;51.986;4.340;2022-07-09T04:38:59;9.30;;;8.40;;
17644;SDS011;8941;51.986;4.340;2022-07-09T04:41:25;8.27;;;7.53;;
17644;SDS011;8941;51.986;4.340;2022-07-09T04:43:53;7.77;;;7.17;;
17644;SDS011;8941;51.986;4.340;2022-07-09T04:46:21;8.30;;;7.50;;
17644;SDS011;8941;51.986;4.340;2022-07-09T04:48:50;8.40;;;7.67;;
17644;SDS011;8941;51.986;4.340;2022-07-09T04:51:16;9.33;;;8.47;;
17644;SDS011;8941;51.986;4.340;2022-07-09T04:53:43;12.47;;;9.87;;
17644;SDS011;8941;51.986;4.340;2022-07-09T04:56:09;11.40;;;10.43;;
17644;SDS011;8941;51.986;4.340;2022-07-09T04:58:35;11.03;;;10.03;;
17644;SDS011;8941;51.986;4.340;2022-07-09T05:01:02;12.27;;;11.17;;
17644;SDS011;8941;51.986;4.340;2022-07-09T05:03:30;11.57;;;10.83;;
17644;SDS011;8941;51.986;4.340;2022-07-09T05:05:57;13.33;;;12.20;;
17644;SDS011;8941;51.986;4.340;2022-07-09T05:08:24;12.43;;;11.33;;
17644;SDS011;8941;51.986;4.340;2022-07-09T05:10:50;12.37;;;11.07;;
17644;SDS011;8941;51.986;4.340;2022-07-09T05:13:16;12.63;;;11.47;;
17644;SDS011;8941;51.986;4.340;2022-07-09T05:15:43;12.07;;;11.03;;
17644;SDS011;8941;51.986;4.340;2022-07-09T05:18:09;14.00;;;12.60;;
17644;SDS011;8941;51.986;4.340;2022-07-09T05:20:37;14.47;;;13.27;;
17644;SDS011;8941;51.986;4.340;2022-07-09T05:23:05;14.27;;;13.03;;
17644;SDS011;8941;51.986;4.340;2022-07-09T05:25:31;13.93;;;12.67;;
17644;SDS011;8941;51.986;4.340;2022-07-09T05:27:58;15.00;;;13.73;;
17644;SDS011;8941;51.986;4.340;2022-07-09T05:30:25;15.27;;;13.97;;
17644;SDS011;8941;51.986;4.340;2022-07-09T05:32:51;16.63;;;14.83;;
17644;SDS011;8941;51.986;4.340;2022-07-09T05:35:18;17.27;;;15.50;;
17644;SDS011;8941;51.986;4.340;2022-07-09T05:37:46;16.90;;;15.40;;
17644;SDS011;8941;51.986;4.340;2022-07-09T05:40:12;17.30;;;15.67;;
17644;SDS011;8941;51.986;4.340;2022-07-09T05:42:39;16.73;;;15.20;;
17644;SDS011;8941;51.986;4.340;2022-07-09T05:45:06;17.63;;;16.17;;
17644;SDS011;8941;51.986;4.340;2022-07-09T05:47:33;17.47;;;16.17;;
17644;SDS011;8941;51.986;4.340;2022-07-09T05:49:59;16.10;;;14.90;;
17644;SDS011;8941;51.986;4.340;2022-07-09T05:52:25;14.97;;;13.87;;
17644;SDS011;8941;51.986;4.340;2022-07-09T05:54:53;14.03;;;11.83;;
17644;SDS011;8941;51.986;4.340;2022-07-09T05:57:20;12.03;;;11.07;;
17644;SDS011;8941;51.986;4.340;2022-07-09T05:59:46;13.80;;;10.60;;
17644;SDS011;8941;51.986;4.340;2022-07-09T06:02:13;10.37;;;9.67;;
17644;SDS011;8941;51.986;4.340;2022-07-09T06:04:39;8.53;;;7.97;;
17644;SDS011;8941;51.986;4.340;2022-07-09T06:07:06;11.33;;;7.70;;
17644;SDS011;8941;51.986;4.340;2022-07-09T06:09:32;7.87;;;7.07;;
17644;SDS011;8941;51.986;4.340;2022-07-09T06:12:00;4.60;;;4.30;;
17644;SDS011;8941;51.986;4.340;2022-07-09T06:14:26;4.53;;;3.57;;
17644;SDS011;8941;51.986;4.340;2022-07-09T06:16:53;3.50;;;3.17;;
17644;SDS011;8941;51.986;4.340;2022-07-09T06:19:20;3.23;;;2.00;;
17644;SDS011;8941;51.986;4.340;2022-07-09T06:21:46;2.30;;;2.20;;
17644;SDS011;8941;51.986;4.340;2022-07-09T06:24:20;2.60;;;2.07;;
17644;SDS011;8941;51.986;4.340;2022-07-09T06:26:49;3.33;;;2.10;;
17644;SDS011;8941;51.986;4.340;2022-07-09T06:29:16;2.37;;;1.43;;
17644;SDS011;8941;51.986;4.340;2022-07-09T06:31:43;1.70;;;1.60;;
17644;SDS011;8941;51.986;4.340;2022-07-09T06:34:09;1.40;;;1.30;;
17644;SDS011;8941;51.986;4.340;2022-07-09T06:36:37;2.00;;;1.87;;
17644;SDS011;8941;51.986;4.340;2022-07-09T06:39:03;3.37;;;1.80;;
17644;SDS011;8941;51.986;4.340;2022-07-09T06:41:47;3.50;;;1.10;;
17644;SDS011;8941;51.986;4.340;2022-07-09T06:44:13;1.57;;;1.30;;
17644;SDS011;8941;51.986;4.340;2022-07-09T06:46:41;0.93;;;0.93;;
17644;SDS011;8941;51.986;4.340;2022-07-09T06:49:07;0.90;;;0.90;;
17644;SDS011;8941;51.986;4.340;2022-07-09T06:51:34;1.13;;;1.03;;
17644;SDS011;8941;51.986;4.340;2022-07-09T06:54:00;3.73;;;0.90;;
17644;SDS011;8941;51.986;4.340;2022-07-09T06:56:26;2.67;;;1.40;;
17644;SDS011;8941;51.986;4.340;2022-07-09T06:58:53;1.07;;;0.97;;
17644;SDS011;8941;51.986;4.340;2022-07-09T07:01:19;2.60;;;1.43;;
17644;SDS011;8941;51.986;4.340;2022-07-09T07:03:47;1.73;;;1.00;;
17644;SDS011;8941;51.986;4.340;2022-07-09T07:06:13;1.33;;;1.10;;
17644;SDS011;8941;51.986;4.340;2022-07-09T07:08:39;1.13;;;0.93;;
17644;SDS011;8941;51.986;4.340;2022-07-09T07:11:06;0.93;;;0.83;;
17644;SDS011;8941;51.986;4.340;2022-07-09T07:13:32;1.10;;;0.90;;
17644;SDS011;8941;51.986;4.340;2022-07-09T07:15:58;1.57;;;1.10;;
17644;SDS011;8941;51.986;4.340;2022-07-09T07:18:25;2.87;;;1.17;;
17644;SDS011;8941;51.986;4.340;2022-07-09T07:20:52;0.90;;;0.90;;
17644;SDS011;8941;51.986;4.340;2022-07-09T07:23:19;1.47;;;1.37;;
17644;SDS011;8941;51.986;4.340;2022-07-09T07:25:45;1.90;;;1.57;;
17644;SDS011;8941;51.986;4.340;2022-07-09T07:28:11;0.90;;;0.90;;
17644;SDS011;8941;51.986;4.340;2022-07-09T07:30:38;2.23;;;0.70;;
17644;SDS011;8941;51.986;4.340;2022-07-09T07:33:04;0.77;;;0.77;;
17644;SDS011;8941;51.986;4.340;2022-07-09T07:35:30;1.70;;;1.00;;
17644;SDS011;8941;51.986;4.340;2022-07-09T07:37:58;2.30;;;1.40;;
17644;SDS011;8941;51.986;4.340;2022-07-09T07:40:25;0.93;;;0.80;;
17644;SDS011;8941;51.986;4.340;2022-07-09T07:42:51;1.17;;;0.90;;
17644;SDS011;8941;51.986;4.340;2022-07-09T07:45:17;1.93;;;1.17;;
17644;SDS011;8941;51.986;4.340;2022-07-09T07:47:44;1.73;;;0.60;;
17644;SDS011;8941;51.986;4.340;2022-07-09T07:50:11;2.67;;;2.07;;
17644;SDS011;8941;51.986;4.340;2022-07-09T07:52:37;1.00;;;0.93;;
17644;SDS011;8941;51.986;4.340;2022-07-09T07:55:05;2.77;;;1.10;;
17644;SDS011;8941;51.986;4.340;2022-07-09T07:57:32;2.77;;;1.17;;
17644;SDS011;8941;51.986;4.340;2022-07-09T07:59:58;1.03;;;1.00;;
17644;SDS011;8941;51.986;4.340;2022-07-09T08:02:24;0.97;;;0.80;;
17644;SDS011;8941;51.986;4.340;2022-07-09T08:04:51;1.23;;;1.00;;
17644;SDS011;8941;51.986;4.340;2022-07-09T08:07:17;1.50;;;1.40;;
17644;SDS011;8941;51.986;4.340;2022-07-09T08:09:43;3.30;;;1.23;;
17644;SDS011;8941;51.986;4.340;2022-07-09T08:12:11;1.10;;;0.77;;
17644;SDS011;8941;51.986;4.340;2022-07-09T08:14:37;1.30;;;1.20;;
17644;SDS011;8941;51.986;4.340;2022-07-09T08:17:04;5.43;;;1.03;;
17644;SDS011;8941;51.986;4.340;2022-07-09T08:19:31;1.77;;;1.17;;
17644;SDS011;8941;51.986;4.340;2022-07-09T08:21:57;0.93;;;0.90;;
17644;SDS011;8941;51.986;4.340;2022-07-09T08:24:24;1.80;;;1.33;;
17644;SDS011;8941;51.986;4.340;2022-07-09T08:26:50;2.60;;;1.03;;
17644;SDS011;8941;51.986;4.340;2022-07-09T08:29:18;1.47;;;1.37;;
17644;SDS011;8941;51.986;4.340;2022-07-09T08:31:44;2.03;;;0.83;;
17644;SDS011;8941;51.986;4.340;2022-07-09T08:34:12;3.23;;;0.90;;
17644;SDS011;8941;51.986;4.340;2022-07-09T08:36:39;0.70;;;0.70;;
17644;SDS011;8941;51.986;4.340;2022-07-09T08:39:05;1.20;;;1.00;;
17644;SDS011;8941;51.986;4.340;2022-07-09T08:41:31;0.90;;;0.87;;
17644;SDS011;8941;51.986;4.340;2022-07-09T08:43:58;0.80;;;0.77;;
17644;SDS011;8941;51.986;4.340;2022-07-09T08:46:27;1.10;;;0.80;;
17644;SDS011;8941;51.986;4.340;2022-07-09T08:48:53;3.50;;;0.90;;
17644;SDS011;8941;51.986;4.340;2022-07-09T08:51:20;0.97;;;0.80;;
17644;SDS011;8941;51.986;4.340;2022-07-09T08:53:47;1.20;;;1.10;;
17644;SDS011;8941;51.986;4.340;2022-07-09T08:56:13;2.47;;;0.73;;
17644;SDS011;8941;51.986;4.340;2022-07-09T08:58:39;4.25;;;1.25;;
17644;SDS011;8941;51.986;4.340;2022-07-09T09:01:06;1.15;;;0.47;;
17644;SDS011;8941;51.986;4.340;2022-07-09T09:03:34;1.70;;;0.80;;
17644;SDS011;8941;51.986;4.340;2022-07-09T09:06:01;1.77;;;1.00;;
17644;SDS011;8941;51.986;4.340;2022-07-09T09:08:32;0.80;;;0.80;;
17644;SDS011;8941;51.986;4.340;2022-07-09T09:10:59;0.65;;;0.63;;
17644;SDS011;8941;51.986;4.340;2022-07-09T09:13:25;1.00;;;0.88;;
17644;SDS011;8941;51.986;4.340;2022-07-09T09:16:01;1.40;;;0.60;;
17644;SDS011;8941;51.986;4.340;2022-07-09T09:18:27;0.73;;;0.73;;
17644;SDS011;8941;51.986;4.340;2022-07-09T09:20:55;0.60;;;0.60;;
17644;SDS011;8941;51.986;4.340;2022-07-09T09:23:27;0.63;;;0.63;;
17644;SDS011;8941;51.986;4.340;2022-07-09T09:25:53;1.02;;;0.60;;
17644;SDS011;8941;51.986;4.340;2022-07-09T09:28:20;0.45;;;0.45;;
17644;SDS011;8941;51.986;4.340;2022-07-09T09:30:46;0.55;;;0.55;;
17644;SDS011;8941;51.986;4.340;2022-07-09T09:33:13;1.25;;;0.98;;
17644;SDS011;8941;51.986;4.340;2022-07-09T09:35:42;3.60;;;0.88;;
17644;SDS011;8941;51.986;4.340;2022-07-09T09:38:09;1.77;;;1.00;;
17644;SDS011;8941;51.986;4.340;2022-07-09T09:40:36;2.20;;;0.98;;
17644;SDS011;8941;51.986;4.340;2022-07-09T09:43:02;0.50;;;0.50;;
17644;SDS011;8941;51.986;4.340;2022-07-09T09:45:29;0.52;;;0.52;;
17644;SDS011;8941;51.986;4.340;2022-07-09T09:47:56;0.60;;;0.60;;
17644;SDS011;8941;51.986;4.340;2022-07-09T09:50:25;0.95;;;0.52;;
17644;SDS011;8941;51.986;4.340;2022-07-09T09:52:52;0.60;;;0.60;;
17644;SDS011;8941;51.986;4.340;2022-07-09T09:55:21;1.63;;;0.70;;
17644;SDS011;8941;51.986;4.340;2022-07-09T09:57:47;1.45;;;0.60;;
17644;SDS011;8941;51.986;4.340;2022-07-09T10:00:14;1.20;;;0.80;;
17644;SDS011;8941;51.986;4.340;2022-07-09T10:02:42;0.40;;;0.40;;
17644;SDS011;8941;51.986;4.340;2022-07-09T10:05:09;2.60;;;1.27;;
17644;SDS011;8941;51.986;4.340;2022-07-09T10:07:35;1.58;;;0.70;;
17644;SDS011;8941;51.986;4.340;2022-07-09T10:10:04;0.50;;;0.50;;
17644;SDS011;8941;51.986;4.340;2022-07-09T10:12:33;0.73;;;0.70;;
17644;SDS011;8941;51.986;4.340;2022-07-09T10:15:00;0.70;;;0.70;;
17644;SDS011;8941;51.986;4.340;2022-07-09T10:17:27;0.60;;;0.57;;
17644;SDS011;8941;51.986;4.340;2022-07-09T10:19:54;0.70;;;0.70;;
17644;SDS011;8941;51.986;4.340;2022-07-09T10:22:33;5.90;;;1.42;;
17644;SDS011;8941;51.986;4.340;2022-07-09T10:25:00;1.23;;;0.70;;
17644;SDS011;8941;51.986;4.340;2022-07-09T10:27:26;1.70;;;1.00;;
17644;SDS011;8941;51.986;4.340;2022-07-09T10:29:55;1.08;;;0.77;;
17644;SDS011;8941;51.986;4.340;2022-07-09T10:32:25;1.33;;;0.82;;
17644;SDS011;8941;51.986;4.340;2022-07-09T10:34:56;0.40;;;0.40;;
17644;SDS011;8941;51.986;4.340;2022-07-09T10:37:35;2.92;;;0.90;;
17644;SDS011;8941;51.986;4.340;2022-07-09T10:40:09;2.08;;;0.82;;
17644;SDS011;8941;51.986;4.340;2022-07-09T10:42:36;2.00;;;1.10;;
17644;SDS011;8941;51.986;4.340;2022-07-09T10:45:14;2.67;;;1.13;;
17644;SDS011;8941;51.986;4.340;2022-07-09T10:47:40;2.40;;;1.20;;
17644;SDS011;8941;51.986;4.340;2022-07-09T10:50:07;2.47;;;1.02;;
17644;SDS011;8941;51.986;4.340;2022-07-09T10:52:34;2.75;;;1.58;;
17644;SDS011;8941;51.986;4.340;2022-07-09T10:55:00;2.50;;;1.20;;
17644;SDS011;8941;51.986;4.340;2022-07-09T10:57:27;4.03;;;1.30;;
17644;SDS011;8941;51.986;4.340;2022-07-09T10:59:53;2.95;;;2.35;;
17644;SDS011;8941;51.986;4.340;2022-07-09T11:02:21;2.35;;;1.55;;
17644;SDS011;8941;51.986;4.340;2022-07-09T11:04:48;5.53;;;1.17;;
17644;SDS011;8941;51.986;4.340;2022-07-09T11:07:19;1.27;;;1.13;;
17644;SDS011;8941;51.986;4.340;2022-07-09T11:09:46;1.60;;;0.80;;
17644;SDS011;8941;51.986;4.340;2022-07-09T11:12:14;1.98;;;1.10;;
17644;SDS011;8941;51.986;4.340;2022-07-09T11:14:42;0.68;;;0.68;;
17644;SDS011;8941;51.986;4.340;2022-07-09T11:17:13;1.83;;;1.05;;
17644;SDS011;8941;51.986;4.340;2022-07-09T11:19:41;2.58;;;1.50;;
17644;SDS011;8941;51.986;4.340;2022-07-09T11:22:07;1.50;;;1.35;;
17644;SDS011;8941;51.986;4.340;2022-07-09T11:24:34;1.65;;;0.88;;
17644;SDS011;8941;51.986;4.340;2022-07-09T11:27:03;3.20;;;1.35;;
17644;SDS011;8941;51.986;4.340;2022-07-09T11:29:30;1.50;;;1.00;;
17644;SDS011;8941;51.986;4.340;2022-07-09T11:31:56;2.30;;;1.17;;
17644;SDS011;8941;51.986;4.340;2022-07-09T11:34:23;2.33;;;1.65;;
17644;SDS011;8941;51.986;4.340;2022-07-09T11:36:51;1.83;;;0.82;;
17644;SDS011;8941;51.986;4.340;2022-07-09T11:39:21;0.75;;;0.63;;
17644;SDS011;8941;51.986;4.340;2022-07-09T11:41:48;3.10;;;0.90;;
17644;SDS011;8941;51.986;4.340;2022-07-09T11:44:22;1.23;;;0.75;;
17644;SDS011;8941;51.986;4.340;2022-07-09T11:47:01;1.75;;;1.52;;
17644;SDS011;8941;51.986;4.340;2022-07-09T11:49:31;2.47;;;1.85;;
17644;SDS011;8941;51.986;4.340;2022-07-09T11:51:59;5.47;;;1.85;;
17644;SDS011;8941;51.986;4.340;2022-07-09T11:54:25;3.47;;;1.38;;
17644;SDS011;8941;51.986;4.340;2022-07-09T11:56:52;4.03;;;1.17;;
17644;SDS011;8941;51.986;4.340;2022-07-09T11:59:24;3.60;;;1.48;;
17644;SDS011;8941;51.986;4.340;2022-07-09T12:01:51;3.90;;;1.67;;
17644;SDS011;8941;51.986;4.340;2022-07-09T12:04:17;4.53;;;2.25;;
17644;SDS011;8941;51.986;4.340;2022-07-09T12:06:46;4.70;;;2.40;;
17644;SDS011;8941;51.986;4.340;2022-07-09T12:09:14;7.63;;;1.60;;
17644;SDS011;8941;51.986;4.340;2022-07-09T12:11:41;3.80;;;2.03;;
17644;SDS011;8941;51.986;4.340;2022-07-09T12:14:08;2.70;;;1.73;;
17644;SDS011;8941;51.986;4.340;2022-07-09T12:16:35;6.38;;;1.85;;
17644;SDS011;8941;51.986;4.340;2022-07-09T12:19:01;4.80;;;1.80;;
17644;SDS011;8941;51.986;4.340;2022-07-09T12:21:28;3.78;;;2.67;;
17644;SDS011;8941;51.986;4.340;2022-07-09T12:23:55;6.05;;;1.98;;
17644;SDS011;8941;51.986;4.340;2022-07-09T12:26:22;5.95;;;2.33;;
17644;SDS011;8941;51.986;4.340;2022-07-09T12:28:49;5.78;;;1.40;;
17644;SDS011;8941;51.986;4.340;2022-07-09T12:31:15;3.65;;;1.95;;
17644;SDS011;8941;51.986;4.340;2022-07-09T12:33:41;5.35;;;1.85;;
17644;SDS011;8941;51.986;4.340;2022-07-09T12:36:08;2.58;;;1.95;;
17644;SDS011;8941;51.986;4.340;2022-07-09T12:38:34;3.00;;;1.88;;
17644;SDS011;8941;51.986;4.340;2022-07-09T12:41:00;6.57;;;2.10;;
17644;SDS011;8941;51.986;4.340;2022-07-09T12:43:28;5.45;;;2.45;;
17644;SDS011;8941;51.986;4.340;2022-07-09T12:45:55;3.03;;;1.75;;
17644;SDS011;8941;51.986;4.340;2022-07-09T12:48:21;7.38;;;2.53;;
17644;SDS011;8941;51.986;4.340;2022-07-09T12:50:47;4.57;;;1.77;;
17644;SDS011;8941;51.986;4.340;2022-07-09T12:53:14;4.18;;;1.80;;
17644;SDS011;8941;51.986;4.340;2022-07-09T12:55:40;6.95;;;2.45;;
17644;SDS011;8941;51.986;4.340;2022-07-09T12:58:07;3.42;;;1.80;;
17644;SDS011;8941;51.986;4.340;2022-07-09T13:00:35;6.68;;;2.33;;
17644;SDS011;8941;51.986;4.340;2022-07-09T13:03:01;2.72;;;2.40;;
17644;SDS011;8941;51.986;4.340;2022-07-09T13:05:28;4.18;;;2.47;;
17644;SDS011;8941;51.986;4.340;2022-07-09T13:07:54;8.55;;;1.73;;
17644;SDS011;8941;51.986;4.340;2022-07-09T13:10:20;2.25;;;1.80;;
17644;SDS011;8941;51.986;4.340;2022-07-09T13:12:48;5.63;;;1.45;;
17644;SDS011;8941;51.986;4.340;2022-07-09T13:15:14;5.30;;;1.75;;
17644;SDS011;8941;51.986;4.340;2022-07-09T13:17:47;5.03;;;1.52;;
17644;SDS011;8941;51.986;4.340;2022-07-09T13:20:13;3.40;;;2.10;;
17644;SDS011;8941;51.986;4.340;2022-07-09T13:22:40;3.05;;;1.92;;
17644;SDS011;8941;51.986;4.340;2022-07-09T13:25:06;2.22;;;2.03;;
17644;SDS011;8941;51.986;4.340;2022-07-09T13:27:33;4.28;;;1.92;;
17644;SDS011;8941;51.986;4.340;2022-07-09T13:29:59;3.28;;;1.88;;
17644;SDS011;8941;51.986;4.340;2022-07-09T13:32:26;2.65;;;1.70;;
17644;SDS011;8941;51.986;4.340;2022-07-09T13:34:54;6.22;;;2.03;;
17644;SDS011;8941;51.986;4.340;2022-07-09T13:37:20;5.25;;;2.35;;
17644;SDS011;8941;51.986;4.340;2022-07-09T13:39:48;5.55;;;2.05;;
17644;SDS011;8941;51.986;4.340;2022-07-09T13:42:14;2.47;;;1.15;;
17644;SDS011;8941;51.986;4.340;2022-07-09T13:44:41;1.73;;;1.52;;
17644;SDS011;8941;51.986;4.340;2022-07-09T13:47:07;1.45;;;1.35;;
17644;SDS011;8941;51.986;4.340;2022-07-09T13:49:34;2.67;;;1.60;;
17644;SDS011;8941;51.986;4.340;2022-07-09T13:52:02;5.35;;;1.88;;
17644;SDS011;8941;51.986;4.340;2022-07-09T13:54:28;3.60;;;1.52;;
17644;SDS011;8941;51.986;4.340;2022-07-09T13:56:55;3.38;;;1.40;;
17644;SDS011;8941;51.986;4.340;2022-07-09T13:59:21;4.05;;;1.70;;
17644;SDS011;8941;51.986;4.340;2022-07-09T14:01:47;6.10;;;2.22;;
17644;SDS011;8941;51.986;4.340;2022-07-09T14:04:14;5.72;;;2.00;;
17644;SDS011;8941;51.986;4.340;2022-07-09T14:06:40;10.02;;;2.15;;
17644;SDS011;8941;51.986;4.340;2022-07-09T14:09:08;2.45;;;1.77;;
17644;SDS011;8941;51.986;4.340;2022-07-09T14:11:34;2.80;;;1.48;;
17644;SDS011;8941;51.986;4.340;2022-07-09T14:14:01;3.28;;;2.08;;
17644;SDS011;8941;51.986;4.340;2022-07-09T14:16:27;5.28;;;1.90;;
17644;SDS011;8941;51.986;4.340;2022-07-09T14:18:53;7.68;;;1.58;;
17644;SDS011;8941;51.986;4.340;2022-07-09T14:21:20;3.03;;;1.95;;
17644;SDS011;8941;51.986;4.340;2022-07-09T14:23:47;4.95;;;2.25;;
17644;SDS011;8941;51.986;4.340;2022-07-09T14:26:15;3.30;;;3.00;;
17644;SDS011;8941;51.986;4.340;2022-07-09T14:28:41;4.00;;;2.80;;
17644;SDS011;8941;51.986;4.340;2022-07-09T14:31:08;1.70;;;1.60;;
17644;SDS011;8941;51.986;4.340;2022-07-09T14:33:34;3.25;;;2.60;;
17644;SDS011;8941;51.986;4.340;2022-07-09T14:36:00;2.22;;;1.65;;
17644;SDS011;8941;51.986;4.340;2022-07-09T14:38:27;5.72;;;2.30;;
17644;SDS011;8941;51.986;4.340;2022-07-09T14:40:53;2.03;;;1.70;;
17644;SDS011;8941;51.986;4.340;2022-07-09T14:43:21;4.47;;;4.13;;
17644;SDS011;8941;51.986;4.340;2022-07-09T14:45:47;6.15;;;5.50;;
17644;SDS011;8941;51.986;4.340;2022-07-09T14:48:14;3.65;;;3.35;;
17644;SDS011;8941;51.986;4.340;2022-07-09T14:50:41;1.27;;;1.00;;
17644;SDS011;8941;51.986;4.340;2022-07-09T14:53:07;2.15;;;1.00;;